Time;durP1;ratioP1;P1;durP2;ratioP2;P2;SDS_P1;SDS_P2;PMS_P1;PMS_P2;Temp;Humidity;BMP_temperature;BMP_pressure;BME280_temperature;BME280_humidity;BME280_pressure;Samples;Min_cycle;Max_cycle;Signal;HPM_P1;HPM_P2
2022/10/27 00:00:42;;;;;;;6.75;2.15;;;14.60;99.90;;;;;;5115984;28;20172;-52
2022/10/27 00:03:12;;;;;;;6.43;2.70;;;14.60;99.90;;;;;;5097670;28;20214;-53
2022/10/27 00:05:38;;;;;;;7.80;3.00;;;14.60;99.90;;;;;;5116003;28;20717;-53
2022/10/27 00:08:04;;;;;;;5.53;2.20;;;14.60;99.90;;;;;;5115905;28;20169;-51
2022/10/27 00:10:29;;;;;;;5.28;2.58;;;14.50;99.90;;;;;;5115781;28;20204;-54
2022/10/27 00:12:55;;;;;;;11.45;3.63;;;14.50;99.90;;;;;;5115901;28;20643;-53
2022/10/27 00:15:21;;;;;;;6.68;2.70;;;14.50;99.90;;;;;;5115746;28;20205;-53
2022/10/27 00:17:46;;;;;;;5.72;2.40;;;14.50;99.90;;;;;;5116097;28;20236;-54
2022/10/27 00:20:12;;;;;;;37.28;12.95;;;14.50;99.90;;;;;;5115667;28;20251;-54
2022/10/27 00:22:37;;;;;;;47.03;13.27;;;14.50;99.90;;;;;;5115638;28;20184;-54
2022/10/27 00:25:04;;;;;;;39.67;12.82;;;14.60;99.90;;;;;;5115558;28;20169;-54
2022/10/27 00:27:30;;;;;;;21.45;7.72;;;14.50;99.90;;;;;;5115809;28;20164;-54
2022/10/27 00:29:55;;;;;;;63.55;22.02;;;14.50;99.90;;;;;;5115313;28;20498;-55
2022/10/27 00:32:21;;;;;;;16.67;5.53;;;14.40;99.90;;;;;;5115502;28;20212;-54
2022/10/27 00:34:47;;;;;;;10.38;3.03;;;14.40;99.90;;;;;;5115847;28;20220;-54
2022/10/27 00:37:12;;;;;;;8.57;2.13;;;14.30;99.90;;;;;;5115400;28;20180;-53
2022/10/27 00:39:38;;;;;;;44.03;15.90;;;14.30;99.90;;;;;;5115417;28;20681;-52
2022/10/27 00:42:03;;;;;;;41.10;14.07;;;14.30;99.90;;;;;;5115287;28;20274;-54
2022/10/27 00:44:36;;;;;;;15.38;5.88;;;14.30;99.90;;;;;;5115195;28;20160;-50
2022/10/27 00:47:25;;;;;;;17.15;6.30;;;14.20;99.90;;;;;;5115137;28;20631;-54
2022/10/27 00:50:15;;;;;;;30.77;10.38;;;14.20;99.90;;;;;;5115015;28;20169;-54
2022/10/27 00:52:47;;;;;;;4.97;1.92;;;14.30;99.90;;;;;;5115001;28;20173;-52
2022/10/27 00:55:17;;;;;;;19.05;6.43;;;14.20;99.90;;;;;;5114827;28;20161;-54
2022/10/27 00:57:46;;;;;;;5.78;1.85;;;14.10;99.90;;;;;;5114755;28;20662;-50
2022/10/27 01:00:12;;;;;;;4.28;1.95;;;14.00;99.90;;;;;;5114849;28;20267;-53
2022/10/27 01:02:38;;;;;;;3.78;2.08;;;14.00;99.90;;;;;;5115020;28;20303;-54
2022/10/27 01:05:20;;;;;;;13.18;4.22;;;13.90;99.90;;;;;;5114681;28;20644;-52
2022/10/27 01:07:47;;;;;;;18.88;5.57;;;13.90;99.90;;;;;;5115116;28;20157;-53
2022/10/27 01:10:15;;;;;;;20.88;6.38;;;13.90;99.90;;;;;;5114542;28;20231;-54
2022/10/27 01:12:41;;;;;;;11.98;4.18;;;13.90;99.90;;;;;;5114684;28;20172;-54
2022/10/27 01:15:09;;;;;;;7.70;2.50;;;13.90;99.90;;;;;;5114890;28;20248;-54
2022/10/27 01:17:46;;;;;;;14.80;4.05;;;13.90;99.90;;;;;;5114511;28;20161;-54
2022/10/27 01:20:24;;;;;;;7.95;2.28;;;13.90;99.90;;;;;;5114488;28;20503;-54
2022/10/27 01:23:00;;;;;;;7.15;2.40;;;13.80;99.90;;;;;;5114498;28;20184;-51
2022/10/27 01:25:57;;;;;;;4.40;2.10;;;13.80;99.90;;;;;;5114406;28;20195;-53
2022/10/27 01:28:48;;;;;;;5.68;2.50;;;13.70;99.90;;;;;;5114453;28;20165;-55
2022/10/27 01:31:22;;;;;;;6.68;1.98;;;13.80;99.90;;;;;;5114140;28;20204;-53
2022/10/27 01:33:59;;;;;;;6.28;2.45;;;13.70;99.90;;;;;;5114616;28;20232;-54
2022/10/27 01:36:45;;;;;;;4.00;1.90;;;13.60;99.90;;;;;;5114145;28;20198;-54
2022/10/27 01:39:17;;;;;;;6.05;2.45;;;13.70;99.90;;;;;;5114150;28;20163;-53
2022/10/27 01:41:52;;;;;;;5.32;3.10;;;13.70;99.90;;;;;;5114159;28;20161;-53
2022/10/27 01:44:28;;;;;;;5.40;2.38;;;13.70;99.90;;;;;;5114394;28;20206;-54
2022/10/27 01:46:56;;;;;;;2.65;2.17;;;13.80;99.90;;;;;;5113967;28;20171;-53
2022/10/27 01:49:22;;;;;;;6.05;2.13;;;13.80;99.90;;;;;;5113923;28;20165;-51
2022/10/27 01:51:48;;;;;;;6.63;4.00;;;13.70;99.90;;;;;;5114325;28;20255;-53
2022/10/27 01:54:15;;;;;;;6.93;2.90;;;13.60;99.90;;;;;;5114006;28;20173;-54
2022/10/27 01:56:56;;;;;;;6.82;3.28;;;13.60;99.90;;;;;;5113822;28;20164;-53
2022/10/27 01:59:40;;;;;;;6.00;2.95;;;13.60;99.90;;;;;;5113673;28;20224;-54
2022/10/27 02:02:27;;;;;;;3.03;2.00;;;13.60;99.90;;;;;;5113914;28;20214;-53
2022/10/27 02:05:02;;;;;;;8.20;2.60;;;13.50;99.90;;;;;;5113190;28;20173;-52
2022/10/27 02:07:52;;;;;;;4.15;2.20;;;13.50;99.90;;;;;;5113701;28;20593;-50
2022/10/27 02:10:26;;;;;;;5.18;2.55;;;13.50;99.90;;;;;;5113836;28;20279;-53
2022/10/27 02:12:53;;;;;;;6.03;2.28;;;13.40;99.90;;;;;;5113474;28;20165;-53
2022/10/27 02:15:27;;;;;;;3.17;1.95;;;13.50;99.90;;;;;;5113764;28;20186;-52
2022/10/27 02:17:59;;;;;;;4.78;2.35;;;13.50;99.90;;;;;;5113483;28;20644;-53
2022/10/27 02:20:31;;;;;;;8.05;2.78;;;13.40;99.90;;;;;;5113365;28;20704;-52
2022/10/27 02:22:58;;;;;;;6.18;3.03;;;13.30;99.90;;;;;;5113382;28;20156;-53
2022/10/27 02:25:28;;;;;;;6.88;3.67;;;13.40;99.90;;;;;;5113175;28;20173;-53
2022/10/27 02:28:00;;;;;;;7.65;2.90;;;13.40;99.90;;;;;;5113266;28;20222;-52
2022/10/27 02:30:26;;;;;;;5.55;3.35;;;13.40;99.90;;;;;;5113066;28;20220;-54
2022/10/27 02:32:52;;;;;;;5.00;3.28;;;13.40;99.90;;;;;;5113116;28;20172;-51
2022/10/27 02:35:18;;;;;;;5.88;3.40;;;13.40;99.90;;;;;;5113345;28;20164;-50
2022/10/27 02:37:45;;;;;;;10.30;3.83;;;13.40;99.90;;;;;;5113062;28;20157;-52
2022/10/27 02:40:10;;;;;;;12.25;3.95;;;13.30;99.90;;;;;;5112956;28;20167;-54
2022/10/27 02:42:36;;;;;;;8.50;3.28;;;13.30;99.90;;;;;;5112879;28;20164;-53
2022/10/27 02:45:02;;;;;;;11.90;4.22;;;13.30;99.90;;;;;;5112845;28;20628;-53
2022/10/27 02:47:27;;;;;;;9.70;4.28;;;13.30;99.90;;;;;;5112835;28;20169;-53
2022/10/27 02:49:53;;;;;;;10.70;4.30;;;13.40;99.90;;;;;;5112644;28;20169;-52
2022/10/27 02:52:18;;;;;;;17.20;5.25;;;13.30;99.90;;;;;;5113057;28;20169;-52
2022/10/27 02:54:47;;;;;;;9.27;4.65;;;13.30;99.90;;;;;;5112648;28;20248;-52
2022/10/27 02:57:14;;;;;;;12.77;4.40;;;13.20;99.90;;;;;;5112613;28;20211;-53
2022/10/27 02:59:39;;;;;;;11.25;5.72;;;13.20;99.90;;;;;;5112481;28;20216;-52
2022/10/27 03:02:05;;;;;;;9.82;6.25;;;13.20;99.90;;;;;;5112585;28;20153;-52
2022/10/27 03:04:30;;;;;;;19.15;7.50;;;13.20;99.90;;;;;;5112564;28;20252;-52
2022/10/27 03:06:56;;;;;;;13.55;7.25;;;13.20;99.90;;;;;;5112564;28;20238;-52
2022/10/27 03:09:22;;;;;;;11.30;7.65;;;13.20;99.90;;;;;;5112473;28;20215;-53
2022/10/27 03:11:47;;;;;;;13.15;8.10;;;13.20;99.90;;;;;;5112665;28;20563;-53
2022/10/27 03:14:13;;;;;;;13.80;7.05;;;13.20;99.90;;;;;;5112328;28;20168;-52
2022/10/27 03:16:38;;;;;;;11.82;7.85;;;13.20;99.90;;;;;;5111813;28;20769;-54
2022/10/27 03:19:04;;;;;;;10.18;6.93;;;13.20;99.90;;;;;;5112281;28;20171;-53
2022/10/27 03:21:30;;;;;;;15.63;8.38;;;13.20;99.90;;;;;;5112335;28;20161;-53
2022/10/27 03:23:55;;;;;;;14.65;7.90;;;13.20;99.90;;;;;;5112593;28;20160;-51
2022/10/27 03:26:21;;;;;;;8.88;7.38;;;13.20;99.90;;;;;;5112219;28;20173;-54
2022/10/27 03:28:46;;;;;;;11.30;6.63;;;13.20;99.90;;;;;;5112608;28;20165;-54
2022/10/27 03:31:12;;;;;;;12.85;6.70;;;13.20;99.90;;;;;;5112141;28;20208;-50
2022/10/27 03:33:37;;;;;;;15.25;5.97;;;13.20;99.90;;;;;;5112164;28;20213;-52
2022/10/27 03:36:03;;;;;;;19.83;6.93;;;13.20;99.90;;;;;;5112196;28;20173;-53
2022/10/27 03:38:28;;;;;;;14.75;6.10;;;13.10;99.90;;;;;;5112163;28;20289;-51
2022/10/27 03:40:54;;;;;;;9.50;5.95;;;13.10;99.90;;;;;;5112071;28;20168;-49
2022/10/27 03:43:19;;;;;;;7.72;4.95;;;13.20;99.90;;;;;;5112113;28;20168;-50
2022/10/27 03:45:48;;;;;;;9.40;4.90;;;13.20;99.90;;;;;;5112346;28;20169;-53
2022/10/27 03:48:15;;;;;;;13.73;4.85;;;12.80;99.90;;;;;;5112617;28;20575;-52
2022/10/27 03:50:47;;;;;;;8.82;5.28;;;13.10;99.90;;;;;;5111873;28;20211;-52
2022/10/27 03:53:14;;;;;;;8.90;4.55;;;13.10;99.90;;;;;;5111963;28;20572;-53
2022/10/27 03:55:40;;;;;;;10.27;4.47;;;13.10;99.90;;;;;;5111959;28;20156;-52
2022/10/27 03:58:07;;;;;;;7.07;4.22;;;13.00;99.90;;;;;;5111783;28;20671;-49
2022/10/27 04:00:32;;;;;;;10.27;4.55;;;13.00;99.90;;;;;;5111861;28;20177;-52
2022/10/27 04:02:58;;;;;;;10.38;4.18;;;13.10;99.90;;;;;;5112094;28;20240;-50
2022/10/27 04:05:24;;;;;;;10.15;4.25;;;13.00;99.90;;;;;;5111555;28;20283;-51
2022/10/27 04:07:50;;;;;;;7.40;4.03;;;13.10;99.90;;;;;;5111716;28;20191;-50
2022/10/27 04:10:16;;;;;;;8.55;4.50;;;13.10;99.90;;;;;;5112037;28;20206;-52
2022/10/27 04:12:51;;;;;;;8.88;3.67;;;13.00;99.90;;;;;;5111827;28;20173;-50
2022/10/27 04:15:17;;;;;;;6.38;3.47;;;13.00;99.90;;;;;;5112193;28;20171;-51
2022/10/27 04:17:43;;;;;;;6.90;3.20;;;13.00;99.90;;;;;;5111580;28;20176;-51
2022/10/27 04:20:09;;;;;;;7.60;3.60;;;12.90;99.90;;;;;;5111645;28;20299;-50
2022/10/27 04:22:35;;;;;;;9.75;3.53;;;12.90;99.90;;;;;;5111918;28;20173;-50
2022/10/27 04:25:00;;;;;;;10.88;3.63;;;12.90;99.90;;;;;;5111752;28;20689;-50
2022/10/27 04:27:26;;;;;;;6.20;3.35;;;12.90;99.90;;;;;;5111595;28;20168;-51
2022/10/27 04:29:51;;;;;;;10.15;3.35;;;12.90;99.90;;;;;;5114678;28;20168;-50
2022/10/27 04:32:17;;;;;;;9.90;4.05;;;12.80;99.90;;;;;;5115773;28;20177;-50
2022/10/27 04:34:42;;;;;;;6.65;3.40;;;12.90;99.90;;;;;;5115421;28;20190;-49
2022/10/27 04:37:08;;;;;;;7.20;3.63;;;12.80;99.90;;;;;;5115373;28;20168;-50
2022/10/27 04:39:33;;;;;;;7.57;3.30;;;12.80;99.90;;;;;;5115223;28;20165;-49
2022/10/27 04:41:59;;;;;;;4.40;3.30;;;12.80;99.90;;;;;;5114807;28;20163;-50
2022/10/27 04:44:25;;;;;;;8.10;4.15;;;12.70;99.90;;;;;;5115166;28;20169;-50
2022/10/27 04:46:50;;;;;;;8.77;3.55;;;12.80;99.90;;;;;;5115165;28;20565;-50
2022/10/27 04:49:16;;;;;;;8.70;4.05;;;12.80;99.90;;;;;;5115494;28;20175;-50
2022/10/27 04:51:42;;;;;;;8.00;4.20;;;12.80;99.90;;;;;;5114942;28;20252;-52
2022/10/27 04:54:07;;;;;;;13.80;3.78;;;12.70;99.90;;;;;;5115017;28;20164;-50
2022/10/27 04:56:33;;;;;;;22.73;4.18;;;12.70;99.90;;;;;;5114964;28;20168;-50
2022/10/27 04:58:59;;;;;;;7.70;4.13;;;12.70;99.90;;;;;;5114731;28;20683;-50
2022/10/27 05:01:24;;;;;;;12.32;4.30;;;12.70;99.90;;;;;;5114822;28;20233;-50
2022/10/27 05:03:50;;;;;;;9.23;4.15;;;12.60;99.90;;;;;;5114840;28;20527;-49
2022/10/27 05:06:16;;;;;;;7.80;4.03;;;12.70;99.90;;;;;;5115016;28;20180;-50
2022/10/27 05:08:41;;;;;;;9.88;3.75;;;12.70;99.90;;;;;;5114731;28;20157;-50
2022/10/27 05:11:07;;;;;;;6.78;4.15;;;12.60;99.90;;;;;;5114535;28;20664;-49
2022/10/27 05:13:32;;;;;;;8.18;4.10;;;12.60;99.90;;;;;;5114625;28;20196;-52
2022/10/27 05:15:59;;;;;;;10.27;4.95;;;12.60;99.90;;;;;;5096251;28;20164;-50
2022/10/27 05:18:25;;;;;;;7.70;4.18;;;12.60;99.90;;;;;;5114599;28;20666;-53
2022/10/27 05:20:50;;;;;;;8.02;4.32;;;12.60;99.90;;;;;;5114573;28;20193;-49
2022/10/27 05:23:16;;;;;;;8.73;3.75;;;12.60;99.90;;;;;;5114815;28;20188;-50
2022/10/27 05:25:41;;;;;;;7.97;3.70;;;12.60;99.90;;;;;;5114373;28;20168;-50
2022/10/27 05:28:10;;;;;;;6.60;3.45;;;12.60;99.90;;;;;;5114356;28;20164;-50
2022/10/27 05:30:36;;;;;;;8.48;4.00;;;12.60;99.90;;;;;;5114158;28;20709;-54
2022/10/27 05:33:02;;;;;;;6.53;3.30;;;12.50;99.90;;;;;;5114161;28;20177;-51
2022/10/27 05:35:28;;;;;;;9.60;3.80;;;12.50;99.90;;;;;;5114171;28;20625;-52
2022/10/27 05:37:53;;;;;;;11.85;5.10;;;12.50;99.90;;;;;;5114423;28;20204;-53
2022/10/27 05:40:19;;;;;;;8.40;4.07;;;12.50;99.90;;;;;;5113193;28;20204;-53
2022/10/27 05:42:54;;;;;;;8.25;4.35;;;12.50;99.90;;;;;;5114253;28;20161;-53
2022/10/27 05:45:22;;;;;;;15.90;5.57;;;12.50;99.90;;;;;;5113997;28;20632;-53
2022/10/27 05:47:48;;;;;;;10.60;4.80;;;12.50;99.90;;;;;;5114218;28;20169;-54
2022/10/27 05:50:14;;;;;;;9.82;4.55;;;12.40;99.90;;;;;;5114247;28;20196;-51
2022/10/27 05:52:44;;;;;;;14.70;7.18;;;12.40;99.90;;;;;;5114178;28;20169;-54
2022/10/27 05:55:09;;;;;;;18.98;6.93;;;12.50;99.90;;;;;;5113667;28;20213;-51
2022/10/27 05:57:35;;;;;;;7.43;4.32;;;12.50;99.90;;;;;;5113686;28;20244;-54
2022/10/27 06:00:00;;;;;;;16.08;6.35;;;12.50;99.90;;;;;;5113557;28;20248;-51
2022/10/27 06:02:26;;;;;;;14.10;5.57;;;12.50;99.90;;;;;;5113605;28;20169;-53
2022/10/27 06:04:51;;;;;;;20.35;7.72;;;12.50;99.90;;;;;;5113783;28;20169;-51
2022/10/27 06:07:17;;;;;;;9.40;5.03;;;12.50;99.90;;;;;;5113984;28;20575;-51
2022/10/27 06:09:42;;;;;;;8.05;4.32;;;12.40;99.90;;;;;;5094892;28;20556;-51
2022/10/27 06:12:08;;;;;;;10.55;5.40;;;12.40;99.90;;;;;;5113386;28;20211;-54
2022/10/27 06:14:33;;;;;;;14.63;5.75;;;12.40;99.90;;;;;;5113418;28;20160;-52
2022/10/27 06:16:59;;;;;;;9.60;5.50;;;12.40;99.90;;;;;;5113342;28;20581;-53
2022/10/27 06:19:24;;;;;;;10.57;6.07;;;12.40;99.90;;;;;;5113476;28;20544;-54
2022/10/27 06:21:50;;;;;;;19.10;9.40;;;12.40;99.90;;;;;;5113319;28;20169;-51
2022/10/27 06:24:15;;;;;;;10.48;4.43;;;12.40;99.90;;;;;;5113562;28;20173;-54
2022/10/27 06:26:41;;;;;;;9.00;3.80;;;12.40;99.90;;;;;;5113266;28;20161;-53
2022/10/27 06:29:06;;;;;;;12.43;4.55;;;12.30;99.90;;;;;;5113041;28;20241;-53
2022/10/27 06:31:32;;;;;;;11.07;4.68;;;12.40;99.90;;;;;;5112927;28;20293;-52
2022/10/27 06:33:57;;;;;;;11.15;4.45;;;12.40;99.90;;;;;;5113293;28;20242;-54
2022/10/27 06:36:23;;;;;;;15.80;6.03;;;12.40;99.90;;;;;;5113011;28;20164;-54
2022/10/27 06:38:49;;;;;;;9.48;4.35;;;12.40;99.90;;;;;;5112962;28;20200;-51
2022/10/27 06:41:14;;;;;;;7.18;3.95;;;12.50;99.90;;;;;;5113234;28;20229;-54
2022/10/27 06:43:40;;;;;;;15.30;5.10;;;12.40;99.90;;;;;;5112821;28;20172;-53
2022/10/27 06:46:05;;;;;;;9.52;4.38;;;12.40;99.90;;;;;;5112763;28;20183;-54
2022/10/27 06:48:31;;;;;;;11.40;6.03;;;12.40;99.90;;;;;;5112858;28;20169;-53
2022/10/27 06:50:56;;;;;;;14.32;6.35;;;12.40;99.90;;;;;;5112708;28;20216;-53
2022/10/27 06:53:22;;;;;;;12.52;5.57;;;12.40;99.90;;;;;;5112595;28;20643;-52
2022/10/27 06:55:47;;;;;;;29.05;11.65;;;12.50;99.90;;;;;;5113089;28;20171;-51
2022/10/27 06:58:13;;;;;;;13.15;6.93;;;12.50;99.90;;;;;;5094583;28;20200;-52
2022/10/27 07:00:38;;;;;;;11.05;4.88;;;12.50;99.90;;;;;;5112522;28;20252;-51
2022/10/27 07:03:08;;;;;;;13.50;5.50;;;12.60;99.90;;;;;;5112498;28;20200;-51
2022/10/27 07:05:35;;;;;;;16.30;6.68;;;12.60;99.90;;;;;;5112745;28;20169;-50
2022/10/27 07:08:00;;;;;;;22.70;7.90;;;12.70;99.90;;;;;;5112286;28;20206;-53
2022/10/27 07:10:26;;;;;;;18.17;7.07;;;12.60;99.90;;;;;;5112307;28;20184;-54
2022/10/27 07:12:58;;;;;;;21.08;5.90;;;12.70;99.90;;;;;;5094078;28;20177;-51
2022/10/27 07:15:26;;;;;;;43.88;15.75;;;12.70;99.90;;;;;;5112552;28;20586;-51
2022/10/27 07:18:00;;;;;;;11.50;5.32;;;12.70;99.90;;;;;;5112135;28;20165;-54
2022/10/27 07:20:29;;;;;;;17.40;5.60;;;12.80;99.90;;;;;;5112125;28;20176;-52
2022/10/27 07:22:56;;;;;;;10.30;3.60;;;12.80;99.90;;;;;;5111950;28;20152;-53
2022/10/27 07:25:21;;;;;;;15.15;6.32;;;12.80;99.90;;;;;;5112243;28;20169;-53
2022/10/27 07:27:52;;;;;;;34.30;12.52;;;12.90;99.90;;;;;;5112104;28;20205;-50
2022/10/27 07:30:22;;;;;;;24.20;11.82;;;12.90;99.90;;;;;;5112570;28;20242;-54
2022/10/27 07:32:48;;;;;;;24.42;12.13;;;12.90;99.90;;;;;;5111954;28;20169;-54
2022/10/27 07:35:14;;;;;;;17.65;8.88;;;13.00;99.90;;;;;;5112245;28;20172;-52
2022/10/27 07:37:44;;;;;;;14.00;7.47;;;13.10;99.90;;;;;;5111758;28;20533;-51
2022/10/27 07:40:11;;;;;;;17.50;8.50;;;13.10;99.90;;;;;;5093701;28;20165;-51
2022/10/27 07:42:46;;;;;;;8.98;6.15;;;13.30;99.90;;;;;;5111906;28;20212;-50
2022/10/27 07:45:13;;;;;;;16.80;9.07;;;13.30;99.90;;;;;;5112201;28;20168;-51
2022/10/27 07:47:50;;;;;;;24.27;13.52;;;13.40;99.90;;;;;;5093624;28;20569;-51
2022/10/27 07:50:17;;;;;;;19.77;13.18;;;13.50;99.90;;;;;;5112249;28;20156;-51
2022/10/27 07:52:43;;;;;;;10.63;7.20;;;13.70;99.90;;;;;;5111811;28;20251;-50
2022/10/27 07:55:10;;;;;;;12.82;10.40;;;13.80;99.90;;;;;;5111652;28;20168;-50
2022/10/27 07:57:36;;;;;;;9.80;4.38;;;14.00;99.90;;;;;;5111792;28;20221;-50
2022/10/27 08:00:04;;;;;;;10.75;4.22;;;14.10;99.90;;;;;;5111553;28;20560;-51
2022/10/27 08:02:30;;;;;;;7.95;3.45;;;14.20;99.90;;;;;;5111735;28;20181;-53
2022/10/27 08:04:56;;;;;;;8.18;3.40;;;14.30;99.90;;;;;;5115073;28;20574;-54
2022/10/27 08:07:22;;;;;;;6.07;2.90;;;14.50;99.90;;;;;;5116066;28;20176;-51
2022/10/27 08:09:48;;;;;;;6.55;2.80;;;14.50;99.90;;;;;;5115795;28;20534;-50
2022/10/27 08:12:13;;;;;;;8.85;3.00;;;14.60;99.90;;;;;;5116062;28;20275;-51
2022/10/27 08:14:39;;;;;;;5.68;2.90;;;14.70;99.90;;;;;;5115389;28;20233;-50
2022/10/27 08:17:04;;;;;;;6.35;3.55;;;14.80;99.90;;;;;;5115682;28;20171;-50
2022/10/27 08:19:30;;;;;;;9.05;2.70;;;15.00;99.90;;;;;;5115592;28;20247;-50
2022/10/27 08:21:55;;;;;;;4.95;2.42;;;15.00;99.90;;;;;;5115533;28;20165;-49
2022/10/27 08:24:21;;;;;;;10.40;3.40;;;15.20;99.90;;;;;;5115237;28;20172;-53
2022/10/27 08:26:47;;;;;;;10.13;3.45;;;15.20;99.90;;;;;;5115915;28;20164;-51
2022/10/27 08:29:12;;;;;;;8.68;3.25;;;15.40;99.90;;;;;;5115187;28;20169;-50
2022/10/27 08:31:38;;;;;;;9.10;2.70;;;15.50;99.90;;;;;;5114857;28;20224;-51
2022/10/27 08:34:03;;;;;;;6.65;2.90;;;15.60;99.90;;;;;;5114778;28;20173;-51
2022/10/27 08:36:31;;;;;;;7.75;2.85;;;15.60;99.90;;;;;;5115485;28;20172;-50
2022/10/27 08:38:56;;;;;;;5.30;2.70;;;15.70;99.90;;;;;;5114951;28;20620;-50
2022/10/27 08:41:24;;;;;;;5.30;2.78;;;15.80;99.90;;;;;;5096881;28;20221;-49
2022/10/27 08:44:22;;;;;;;6.80;2.70;;;15.80;99.90;;;;;;5115194;28;20176;-50
2022/10/27 08:46:57;;;;;;;6.10;3.00;;;15.90;99.90;;;;;;5114686;28;20177;-50
2022/10/27 08:49:40;;;;;;;4.78;2.60;;;16.00;99.90;;;;;;5115224;28;20175;-50
2022/10/27 08:52:15;;;;;;;6.32;2.95;;;16.10;99.90;;;;;;5114922;28;20231;-51
2022/10/27 08:54:47;;;;;;;5.88;2.78;;;16.20;99.90;;;;;;5114657;28;20209;-50
2022/10/27 08:57:22;;;;;;;8.73;2.95;;;16.30;99.90;;;;;;5115267;28;20195;-50
2022/10/27 08:59:51;;;;;;;5.40;2.50;;;16.30;99.90;;;;;;5114407;28;20241;-49
2022/10/27 09:02:25;;;;;;;6.85;2.72;;;16.40;99.90;;;;;;5115080;28;20202;-50
2022/10/27 09:05:15;;;;;;;6.07;2.60;;;16.40;99.90;;;;;;5114490;28;20203;-51
2022/10/27 09:08:05;;;;;;;3.83;2.72;;;16.30;99.90;;;;;;5114911;28;20160;-50
2022/10/27 09:10:37;;;;;;;5.35;2.65;;;16.50;99.90;;;;;;5114873;28;20196;-56
2022/10/27 09:13:17;;;;;;;6.63;2.67;;;16.50;99.90;;;;;;5114632;28;20176;-50
2022/10/27 09:15:51;;;;;;;9.32;2.78;;;16.50;99.90;;;;;;5113251;28;20212;-50
2022/10/27 09:18:41;;;;;;;8.15;2.83;;;16.60;99.90;;;;;;5114316;28;20169;-50
2022/10/27 09:21:17;;;;;;;9.88;3.80;;;16.50;99.90;;;;;;5113584;28;20165;-50
2022/10/27 09:23:48;;;;;;;7.40;2.83;;;16.50;99.90;;;;;;5096231;28;20176;-50
2022/10/27 09:26:16;;;;;;;6.82;3.00;;;16.70;99.90;;;;;;5112971;28;20165;-51
2022/10/27 09:28:50;;;;;;;7.70;2.70;;;16.80;99.90;;;;;;5113585;28;20165;-50
2022/10/27 09:31:27;;;;;;;4.43;2.30;;;17.00;99.90;;;;;;5114485;28;20215;-51
2022/10/27 09:33:59;;;;;;;4.43;2.13;;;17.00;99.90;;;;;;5112923;28;20168;-51
2022/10/27 09:36:24;;;;;;;4.28;2.35;;;17.00;99.90;;;;;;5112394;28;20701;-51
2022/10/27 09:38:50;;;;;;;3.42;2.35;;;17.00;99.90;;;;;;5112709;28;20200;-51
2022/10/27 09:41:16;;;;;;;4.53;2.10;;;17.20;99.90;;;;;;5112837;28;20182;-50
2022/10/27 09:43:41;;;;;;;10.35;2.35;;;17.30;99.90;;;;;;5112323;28;20171;-50
2022/10/27 09:46:24;;;;;;;4.78;2.80;;;17.40;99.90;;;;;;5112368;28;20252;-49
2022/10/27 09:49:01;;;;;;;4.88;2.42;;;17.60;99.90;;;;;;5100620;28;20644;-50
2022/10/27 09:51:53;;;;;;;7.28;2.70;;;17.70;99.90;;;;;;5092051;28;20215;-51
2022/10/27 09:54:33;;;;;;;8.32;2.42;;;17.80;99.90;;;;;;5091791;28;20170;-49
2022/10/27 09:57:09;;;;;;;5.70;2.40;;;17.80;99.90;;;;;;5092462;28;20177;-49
2022/10/27 09:59:36;;;;;;;6.03;2.40;;;17.90;99.90;;;;;;5091831;28;20707;-50
2022/10/27 10:02:18;;;;;;;5.50;2.35;;;17.90;99.90;;;;;;5091980;28;20661;-54
2022/10/27 10:04:45;;;;;;;4.93;1.90;;;18.10;99.90;;;;;;5105659;28;20164;-52
2022/10/27 10:07:31;;;;;;;4.07;2.03;;;18.10;99.90;;;;;;5112187;28;20183;-54
2022/10/27 10:10:16;;;;;;;6.63;2.30;;;18.20;99.90;;;;;;5112302;28;20183;-52
2022/10/27 10:12:42;;;;;;;2.95;1.75;;;18.20;99.90;;;;;;5112035;28;20243;-49
2022/10/27 10:15:10;;;;;;;3.70;2.53;;;18.30;99.90;;;;;;5111868;28;20168;-51
2022/10/27 10:17:39;;;;;;;6.00;2.85;;;18.40;99.90;;;;;;5112241;28;20172;-50
2022/10/27 10:20:07;;;;;;;4.50;2.25;;;18.40;99.90;;;;;;5111958;28;20171;-52
2022/10/27 10:22:35;;;;;;;4.63;2.05;;;18.50;99.90;;;;;;5111782;28;20168;-51
2022/10/27 10:25:28;;;;;;;5.65;2.35;;;18.50;99.90;;;;;;5112097;28;20171;-52
2022/10/27 10:28:04;;;;;;;4.75;2.25;;;18.50;99.90;;;;;;5108475;28;20199;-51
2022/10/27 10:30:33;;;;;;;7.50;2.45;;;18.70;99.90;;;;;;5093342;28;20337;-52
2022/10/27 10:33:01;;;;;;;4.72;2.65;;;18.90;99.90;;;;;;5111659;28;20171;-53
2022/10/27 10:35:48;;;;;;;3.92;2.05;;;18.90;99.90;;;;;;5111881;28;20169;-52
2022/10/27 10:38:22;;;;;;;3.35;2.15;;;19.00;99.90;;;;;;5111885;28;20713;-52
2022/10/27 10:41:11;;;;;;;5.55;2.53;;;19.00;99.90;;;;;;5111627;28;20176;-52
2022/10/27 10:43:37;;;;;;;6.05;2.47;;;19.10;99.90;;;;;;5111596;28;20813;-52
2022/10/27 10:46:04;;;;;;;9.07;2.63;;;19.10;99.90;;;;;;5111357;28;20253;-52
2022/10/27 10:48:39;;;;;;;4.03;2.30;;;19.20;99.90;;;;;;5111485;28;20207;-53
2022/10/27 10:51:07;;;;;;;3.83;1.85;;;19.40;99.90;;;;;;5111128;28;20582;-51
2022/10/27 10:53:38;;;;;;;2.53;1.70;;;19.40;99.90;;;;;;5111577;28;20192;-50
2022/10/27 10:56:16;;;;;;;10.63;2.53;;;19.50;99.90;;;;;;5111216;28;20200;-50
2022/10/27 10:58:42;;;;;;;7.05;2.22;;;19.50;99.90;;;;;;5111456;28;20239;-50
2022/10/27 11:01:08;;;;;;;8.75;2.65;;;19.60;99.90;;;;;;5092602;28;20632;-50
2022/10/27 11:03:43;;;;;;;9.10;2.47;;;19.70;99.90;;;;;;5092909;28;20204;-50
2022/10/27 11:06:18;;;;;;;19.77;11.73;;;19.80;99.90;;;;;;5110803;28;20462;-50
2022/10/27 11:08:50;;;;;;;6.30;3.75;;;19.80;99.90;;;;;;5111319;28;20160;-49
2022/10/27 11:11:19;;;;;;;23.35;15.57;;;19.70;99.90;;;;;;5111192;28;20280;-49
2022/10/27 11:13:54;;;;;;;13.73;8.63;;;19.70;99.90;;;;;;5111332;28;20172;-50
2022/10/27 11:16:20;;;;;;;12.52;6.93;;;19.70;99.90;;;;;;5110815;28;20168;-50
2022/10/27 11:18:49;;;;;;;17.60;10.45;;;19.80;99.90;;;;;;5111125;28;20621;-50
2022/10/27 11:21:28;;;;;;;32.60;17.42;;;19.80;99.90;;;;;;5111090;28;20173;-51
2022/10/27 11:24:07;;;;;;;17.05;10.80;;;20.00;99.90;;;;;;5110836;28;20666;-51
2022/10/27 11:26:36;;;;;;;14.68;7.53;;;20.20;99.90;;;;;;5110766;28;20712;-50
2022/10/27 11:29:07;;;;;;;5.88;2.80;;;20.30;99.90;;;;;;5110684;28;20529;-50
2022/10/27 11:31:57;;;;;;;8.82;3.70;;;20.30;99.90;;;;;;5110565;28;20237;-50
2022/10/27 11:34:47;;;;;;;5.05;2.33;;;20.10;99.90;;;;;;5110602;28;20168;-50
2022/10/27 11:37:22;;;;;;;9.23;7.10;;;20.20;99.90;;;;;;5110881;28;20229;-50
2022/10/27 11:40:27;;;;;;;8.23;4.95;;;20.30;99.90;;;;;;5110372;28;20172;-51
2022/10/27 11:43:08;;;;;;;19.63;9.13;;;20.40;99.90;;;;;;5028018;28;20205;-50
2022/10/27 11:45:39;;;;;;;12.70;6.05;;;20.50;99.90;;;;;;5028105;28;20658;-50
2022/10/27 11:48:19;;;;;;;4.95;3.10;;;20.50;99.90;;;;;;5078044;28;20180;-50
2022/10/27 11:50:51;;;;;;;22.08;9.82;;;20.50;99.90;;;;;;5110814;28;20295;-50
2022/10/27 11:53:17;;;;;;;7.35;3.20;;;20.60;99.90;;;;;;5110372;28;20635;-50
2022/10/27 11:56:13;;;;;;;8.52;4.80;;;20.70;99.90;;;;;;5110785;28;20181;-50
2022/10/27 11:58:46;;;;;;;7.95;4.32;;;20.70;99.90;;;;;;5110343;28;20220;-50
2022/10/27 12:01:36;;;;;;;8.18;3.97;;;20.80;99.90;;;;;;5092637;28;20624;-50
2022/10/27 12:04:14;;;;;;;7.25;3.20;;;20.60;99.90;;;;;;5110350;28;20165;-50
2022/10/27 12:07:12;;;;;;;5.78;2.85;;;20.70;99.90;;;;;;5110325;28;20566;-50
2022/10/27 12:10:05;;;;;;;4.18;2.05;;;20.80;99.90;;;;;;5110214;28;20165;-50
2022/10/27 12:12:36;;;;;;;7.50;3.55;;;20.70;99.90;;;;;;5110272;28;20683;-50
2022/10/27 12:15:11;;;;;;;6.10;2.50;;;20.80;99.90;;;;;;5091966;28;20200;-50
2022/10/27 12:17:54;;;;;;;11.93;3.53;;;20.60;99.90;;;;;;5110076;28;20573;-51
2022/10/27 12:20:27;;;;;;;8.23;2.80;;;20.50;99.90;;;;;;5091967;28;20176;-51
2022/10/27 12:23:02;;;;;;;8.75;2.75;;;20.50;99.90;;;;;;5110232;28;20531;-50
2022/10/27 12:25:55;;;;;;;12.60;3.72;;;20.50;99.90;;;;;;5110185;28;20696;-51
2022/10/27 12:28:24;;;;;;;8.00;2.25;;;20.40;99.90;;;;;;5099230;28;20544;-50
2022/10/27 12:30:50;;;;;;;5.07;3.03;;;20.30;99.90;;;;;;5110124;28;20192;-50
2022/10/27 12:33:18;;;;;;;7.40;4.43;;;20.20;99.90;;;;;;5110380;28;20205;-50
2022/10/27 12:35:50;;;;;;;13.68;4.45;;;20.30;99.90;;;;;;5110378;28;20173;-51
2022/10/27 12:38:34;;;;;;;32.17;14.45;;;20.30;99.90;;;;;;5108410;28;20188;-50
2022/10/27 12:41:25;;;;;;;18.38;8.90;;;20.20;99.90;;;;;;5110098;28;20275;-50
2022/10/27 12:44:12;;;;;;;16.08;6.55;;;20.20;99.90;;;;;;5110012;28;20205;-50
2022/10/27 12:46:47;;;;;;;16.48;8.23;;;20.10;99.90;;;;;;5109971;28;20165;-50
2022/10/27 12:49:32;;;;;;;16.48;7.10;;;20.10;99.90;;;;;;5111072;28;20168;-50
2022/10/27 12:52:25;;;;;;;13.50;5.18;;;20.10;99.90;;;;;;5112825;28;20223;-50
2022/10/27 12:55:23;;;;;;;13.68;7.47;;;20.10;99.90;;;;;;5113513;28;20168;-51
2022/10/27 12:57:50;;;;;;;22.50;11.60;;;20.10;99.90;;;;;;5113462;28;20161;-51
2022/10/27 13:00:21;;;;;;;19.05;6.22;;;20.10;99.90;;;;;;5113746;28;20524;-52